Time;durP1;ratioP1;P1;durP2;ratioP2;P2;SDS_P1;SDS_P2;PMS_P1;PMS_P2;Temp;Humidity;BMP_temperature;BMP_pressure;BME280_temperature;BME280_humidity;BME280_pressure;Samples;Min_cycle;Max_cycle;Signal;HPM_P1;HPM_P2
2023/06/11 00:02:02;;;;;;;7.50;6.10;;;21.40;55.90;;;23.16;43.50;97450.84;5083584;28;20431;-62
2023/06/11 00:04:34;;;;;;;6.97;5.75;;;21.30;56.10;;;23.14;43.61;97450.28;5086034;28;20039;-62
2023/06/11 00:07:02;;;;;;;8.75;5.97;;;21.20;56.40;;;23.10;43.81;97452.66;5083159;28;20044;-62
2023/06/11 00:09:30;;;;;;;7.18;5.93;;;21.20;56.90;;;23.07;44.17;97450.47;5080480;28;20041;-62
2023/06/11 00:11:57;;;;;;;6.68;5.93;;;21.10;56.90;;;23.04;44.09;97450.13;5081353;28;20056;-62
2023/06/11 00:14:25;;;;;;;7.25;5.50;;;21.10;56.80;;;23.00;44.15;97452.47;5084707;28;20415;-62
2023/06/11 00:16:52;;;;;;;5.97;5.38;;;21.10;57.00;;;22.94;44.51;97448.84;5084168;28;20051;-62
2023/06/11 00:19:20;;;;;;;6.50;5.78;;;21.10;56.90;;;22.92;44.50;97452.88;5081611;28;20372;-62
2023/06/11 00:21:48;;;;;;;6.47;5.88;;;21.10;56.90;;;22.90;44.73;97452.31;5080997;28;20048;-61
2023/06/11 00:24:17;;;;;;;8.18;6.15;;;21.20;57.20;;;22.87;44.84;97445.47;5083357;28;20053;-62
2023/06/11 00:26:45;;;;;;;7.30;6.07;;;21.10;57.60;;;22.86;44.86;97445.72;5083025;28;20048;-62
2023/06/11 00:29:12;;;;;;;7.05;5.72;;;21.00;57.80;;;22.80;45.08;97445.63;5082304;28;20055;-64
2023/06/11 00:31:40;;;;;;;6.72;5.88;;;21.10;58.10;;;22.78;45.23;97444.22;5054471;28;20401;-61
2023/06/11 00:34:09;;;;;;;7.90;5.90;;;21.00;57.90;;;22.76;45.09;97443.63;5037760;28;20053;-61
2023/06/11 00:36:37;;;;;;;7.68;5.38;;;21.10;57.60;;;22.70;45.47;97436.47;5053623;28;20052;-62
2023/06/11 00:39:05;;;;;;;6.20;5.60;;;21.10;57.50;;;22.71;45.13;97443.56;5081458;28;20036;-62
2023/06/11 00:41:34;;;;;;;6.70;6.03;;;21.10;57.70;;;22.69;45.54;97441.09;5061005;28;20076;-62
2023/06/11 00:44:03;;;;;;;7.63;6.07;;;21.10;57.70;;;22.71;45.61;97441.66;5054757;28;20049;-62
2023/06/11 00:46:31;;;;;;;7.78;6.55;;;21.00;57.90;;;22.73;45.61;97449.56;5061415;28;20049;-62
2023/06/11 00:49:00;;;;;;;6.28;5.68;;;21.00;57.90;;;22.74;45.29;97448.47;5037521;28;20052;-62
2023/06/11 00:51:28;;;;;;;6.57;5.97;;;21.10;57.90;;;22.75;45.34;97444.72;5045727;28;20059;-62
2023/06/11 00:53:56;;;;;;;7.38;6.10;;;21.00;57.90;;;22.76;45.39;97446.34;5053903;28;20048;-62
2023/06/11 00:56:26;;;;;;;6.90;6.20;;;21.00;58.00;;;22.75;45.52;97450.94;5070293;28;20051;-62
2023/06/11 00:58:55;;;;;;;8.25;7.45;;;21.00;58.20;;;22.74;45.48;97449.31;5054078;28;20512;-62
2023/06/11 01:01:30;;;;;;;7.53;6.30;;;21.00;58.10;;;22.73;45.66;97455.81;5048507;28;20047;-63
2023/06/11 01:04:00;;;;;;;6.40;5.80;;;21.00;58.60;;;22.72;45.50;97456.03;5034222;28;20049;-62
2023/06/11 01:06:33;;;;;;;7.90;6.65;;;20.90;58.70;;;22.70;45.41;97460.88;5018798;28;1024349;-62
2023/06/11 01:09:04;;;;;;;6.93;5.97;;;20.80;58.80;;;22.67;45.78;97455.97;5051319;28;20095;-62
2023/06/11 01:11:35;;;;;;;6.90;6.10;;;20.80;59.00;;;22.63;45.77;97461.06;5047388;28;20527;-63
2023/06/11 01:14:06;;;;;;;7.93;6.50;;;20.70;59.30;;;22.59;46.07;97458.00;5051353;28;20053;-62
2023/06/11 01:17:02;;;;;;;7.20;6.50;;;20.70;59.50;;;22.57;46.00;97454.72;5072097;28;20049;-62
2023/06/11 01:19:44;;;;;;;7.25;6.55;;;20.70;60.40;;;22.55;45.76;97462.25;5047119;28;20041;-62
2023/06/11 01:22:29;;;;;;;7.55;6.15;;;20.60;60.20;;;22.52;46.03;97460.03;5054123;28;20045;-61
2023/06/11 01:25:17;;;;;;;6.50;5.90;;;20.50;60.40;;;22.50;46.00;97459.44;5039787;28;20060;-62
2023/06/11 01:28:02;;;;;;;8.55;7.65;;;20.60;60.20;;;22.47;46.27;97464.53;5048429;28;20412;-62
2023/06/11 01:30:35;;;;;;;8.82;7.15;;;20.50;61.20;;;22.45;46.31;97462.09;5045915;28;20040;-61
2023/06/11 01:33:05;;;;;;;7.22;6.50;;;20.50;61.10;;;22.42;46.60;97463.38;5054090;28;20052;-62
2023/06/11 01:35:39;;;;;;;7.20;6.32;;;20.50;61.20;;;22.40;46.54;97460.06;5045932;28;20049;-62
2023/06/11 01:38:08;;;;;;;7.30;6.53;;;20.50;60.90;;;22.40;46.83;97459.25;5053101;28;20439;-61
2023/06/11 01:40:39;;;;;;;7.93;6.40;;;20.60;61.10;;;22.36;46.79;97449.97;5054093;28;20048;-62
2023/06/11 01:43:08;;;;;;;7.35;5.90;;;20.50;61.40;;;22.35;46.90;97449.16;5029447;28;20052;-62
2023/06/11 01:45:36;;;;;;;7.35;6.45;;;20.50;61.30;;;22.32;46.79;97449.63;5053789;28;20047;-62
2023/06/11 01:48:05;;;;;;;7.70;5.63;;;20.50;61.10;;;22.32;47.14;97456.94;5053634;28;20059;-61
2023/06/11 01:50:35;;;;;;;7.30;6.43;;;20.50;61.20;;;22.32;47.33;97457.75;5045807;28;20055;-61
2023/06/11 01:53:03;;;;;;;7.07;6.38;;;20.50;61.20;;;22.34;47.05;97457.53;5067323;28;20060;-62
2023/06/11 01:55:30;;;;;;;9.02;6.68;;;20.50;61.20;;;22.31;47.12;97456.09;5053698;28;20044;-62
2023/06/11 01:57:59;;;;;;;8.25;7.22;;;20.60;61.00;;;22.31;47.04;97466.94;5053814;28;20427;-62
2023/06/11 02:00:26;;;;;;;7.10;6.20;;;20.60;60.90;;;22.27;47.41;97462.25;5045164;28;20427;-61
2023/06/11 02:02:54;;;;;;;6.95;6.35;;;20.60;61.10;;;22.25;47.51;97462.47;5061990;28;20427;-62
2023/06/11 02:05:22;;;;;;;7.15;6.45;;;20.50;61.30;;;22.23;47.66;97461.88;5071014;28;20049;-61
2023/06/11 02:07:50;;;;;;;8.07;6.72;;;20.40;61.60;;;22.20;47.43;97457.75;5071541;28;20048;-61
2023/06/11 02:10:18;;;;;;;8.65;6.72;;;20.40;61.50;;;22.16;47.65;97453.06;5053372;28;20060;-61
2023/06/11 02:12:45;;;;;;;7.35;6.63;;;20.30;62.10;;;22.12;47.95;97450.00;5053448;28;20400;-62
2023/06/11 02:15:13;;;;;;;7.93;7.13;;;20.20;62.50;;;22.10;47.55;97459.44;5053431;28;20389;-60
2023/06/11 02:17:41;;;;;;;11.77;7.18;;;20.20;62.60;;;22.08;47.73;97454.28;5064728;28;20055;-60
2023/06/11 02:20:10;;;;;;;7.90;7.10;;;20.20;62.70;;;22.06;47.96;97455.56;5056867;28;20500;-61
2023/06/11 02:22:37;;;;;;;8.32;7.03;;;20.10;62.70;;;22.01;48.21;97456.28;5041637;28;20048;-62
2023/06/11 02:25:05;;;;;;;8.45;6.70;;;20.20;62.50;;;22.00;48.03;97458.19;5075290;28;20044;-61
2023/06/11 02:27:33;;;;;;;7.70;6.90;;;20.20;62.60;;;22.00;48.04;97460.88;5052743;28;20040;-60
2023/06/11 02:30:05;;;;;;;9.32;7.32;;;20.20;62.60;;;21.99;48.23;97469.25;5053249;28;20053;-61
2023/06/11 02:32:32;;;;;;;7.35;6.35;;;20.20;62.80;;;21.96;48.02;97467.81;5060556;28;20053;-60
2023/06/11 02:35:00;;;;;;;7.85;7.15;;;20.20;62.60;;;21.92;48.31;97477.50;5079989;28;20052;-61
2023/06/11 02:37:28;;;;;;;8.75;7.20;;;20.10;63.10;;;21.90;48.40;97468.78;5081828;28;20037;-61
2023/06/11 02:39:56;;;;;;;8.38;7.45;;;20.10;63.30;;;21.88;48.54;97470.91;5058677;28;20044;-60
2023/06/11 02:42:24;;;;;;;7.75;6.88;;;20.10;64.00;;;21.86;48.51;97474.94;5062988;28;20503;-61
2023/06/11 02:44:51;;;;;;;8.27;7.25;;;20.00;63.40;;;21.83;48.67;97474.34;5036886;28;20052;-61
2023/06/11 02:47:19;;;;;;;8.05;6.72;;;20.00;63.60;;;21.82;48.51;97475.38;5076329;28;20043;-61
2023/06/11 02:49:46;;;;;;;9.77;7.30;;;20.00;63.70;;;21.80;48.30;97472.09;5079640;28;20408;-61
2023/06/11 02:52:14;;;;;;;7.15;6.25;;;20.00;63.60;;;21.79;48.26;97478.59;5079967;28;20053;-60
2023/06/11 02:54:41;;;;;;;7.75;7.00;;;19.90;63.60;;;21.78;48.55;97484.25;5060535;28;20052;-62
2023/06/11 02:57:10;;;;;;;7.78;7.00;;;19.90;63.70;;;21.77;48.22;97494.25;5052571;28;20056;-61
2023/06/11 02:59:37;;;;;;;8.70;6.82;;;19.90;63.80;;;21.71;48.48;97486.25;5028659;28;20052;-61
2023/06/11 03:02:05;;;;;;;7.85;6.45;;;19.90;63.80;;;21.69;48.57;97497.31;5049063;28;20053;-61
2023/06/11 03:04:33;;;;;;;7.80;6.88;;;19.80;63.70;;;21.66;48.41;97486.97;5052366;28;20052;-61
2023/06/11 03:07:00;;;;;;;7.63;6.93;;;19.80;64.00;;;21.65;48.47;97492.59;5052466;28;20056;-62
2023/06/11 03:09:28;;;;;;;7.43;6.72;;;19.70;64.10;;;21.61;48.68;97495.78;5054570;28;20052;-61
2023/06/11 03:11:56;;;;;;;7.60;6.63;;;19.70;64.30;;;21.58;48.68;97484.63;5082411;28;20051;-61
2023/06/11 03:14:26;;;;;;;8.57;6.47;;;19.70;64.40;;;21.54;48.99;97492.38;5055380;28;20678;-61
2023/06/11 03:16:53;;;;;;;7.50;6.22;;;19.60;64.50;;;21.52;48.75;97488.25;5064332;28;20056;-61
2023/06/11 03:19:21;;;;;;;7.80;7.00;;;19.60;64.70;;;21.48;49.16;97497.91;5081542;28;20044;-62
2023/06/11 03:21:50;;;;;;;8.25;6.88;;;19.50;64.90;;;21.42;49.01;97496.91;5054167;28;20507;-61
2023/06/11 03:24:18;;;;;;;12.88;7.28;;;19.50;66.10;;;21.38;49.15;97496.59;5052789;28;20055;-60
2023/06/11 03:26:46;;;;;;;8.70;6.72;;;19.40;65.40;;;21.33;49.40;97501.06;5059705;28;20048;-61
2023/06/11 03:29:14;;;;;;;7.55;6.72;;;19.40;65.50;;;21.29;49.34;97508.81;5052522;28;20415;-61
2023/06/11 03:31:47;;;;;;;10.48;7.20;;;19.30;65.60;;;21.28;49.32;97506.34;5042344;28;20041;-61
2023/06/11 03:34:15;;;;;;;7.85;6.90;;;19.30;65.80;;;21.26;49.18;97503.84;5040954;28;20041;-61
2023/06/11 03:36:43;;;;;;;8.52;6.88;;;19.30;65.70;;;21.23;49.62;97505.16;5051855;28;20049;-61
2023/06/11 03:39:16;;;;;;;9.38;7.55;;;19.30;65.80;;;21.21;49.05;97503.75;5052193;28;20052;-60
2023/06/11 03:41:46;;;;;;;8.70;7.22;;;19.30;65.80;;;21.20;49.56;97508.31;5052558;28;20056;-61
2023/06/11 03:44:15;;;;;;;7.93;7.13;;;19.30;65.70;;;21.18;49.42;97509.59;5052083;28;20051;-62
2023/06/11 03:46:43;;;;;;;8.95;6.82;;;19.30;65.50;;;21.16;49.71;97509.84;5044204;28;20516;-61
2023/06/11 03:49:11;;;;;;;6.88;6.18;;;19.20;65.50;;;21.13;49.42;97514.88;5060700;28;20045;-61
2023/06/11 03:51:39;;;;;;;9.18;6.93;;;19.20;65.70;;;21.11;49.63;97511.59;5036254;28;20512;-62
2023/06/11 03:54:07;;;;;;;7.28;6.10;;;19.20;65.80;;;21.13;49.80;97517.59;5077937;28;20048;-61
2023/06/11 03:56:34;;;;;;;9.45;7.05;;;19.30;66.00;;;21.13;49.48;97518.44;5060759;28;20048;-60
2023/06/11 03:59:02;;;;;;;7.38;6.07;;;19.30;65.80;;;21.12;49.60;97515.97;5038144;28;20249;-61
2023/06/11 04:01:30;;;;;;;9.35;7.15;;;19.30;65.90;;;21.11;49.84;97515.13;5084521;28;20067;-62
2023/06/11 04:03:58;;;;;;;7.50;6.70;;;19.20;66.00;;;21.10;49.84;97518.88;5062587;28;20055;-62
2023/06/11 04:06:27;;;;;;;7.30;6.22;;;19.30;66.20;;;21.10;49.71;97523.47;5056130;28;20040;-61
2023/06/11 04:08:58;;;;;;;7.65;6.63;;;19.20;66.30;;;21.08;49.67;97528.31;5060090;28;20047;-61
2023/06/11 04:11:25;;;;;;;7.28;6.38;;;19.20;66.40;;;21.08;50.13;97539.94;5063131;28;20495;-61
2023/06/11 04:13:53;;;;;;;7.72;6.88;;;19.20;66.40;;;21.09;50.05;97532.66;5055866;28;20040;-61
2023/06/11 04:16:21;;;;;;;7.25;6.55;;;19.30;66.40;;;21.09;49.96;97524.53;5055360;28;20048;-61
2023/06/11 04:18:48;;;;;;;8.07;6.57;;;19.20;66.40;;;21.08;50.00;97525.59;5071710;28;20504;-61
2023/06/11 04:21:16;;;;;;;8.52;7.15;;;19.30;66.20;;;21.07;49.99;97524.75;5038902;28;20045;-61
2023/06/11 04:23:44;;;;;;;10.50;7.05;;;19.30;66.20;;;21.08;50.26;97522.91;5050664;28;20392;-61
2023/06/11 04:26:15;;;;;;;9.45;6.68;;;19.30;66.30;;;21.08;49.90;97520.19;5066800;28;20541;-61
2023/06/11 04:28:45;;;;;;;7.88;6.22;;;19.30;66.20;;;21.07;49.97;97527.47;5063507;28;20044;-61
2023/06/11 04:31:14;;;;;;;7.97;6.70;;;19.30;66.40;;;21.07;50.39;97538.28;5039211;28;20037;-61
2023/06/11 04:33:42;;;;;;;7.50;6.40;;;19.30;66.40;;;21.08;50.25;97531.00;5057925;28;20657;-61
2023/06/11 04:36:10;;;;;;;8.40;6.70;;;19.30;66.70;;;21.04;50.21;97523.34;5040082;28;20492;-60
2023/06/11 04:38:44;;;;;;;7.70;6.53;;;19.30;67.10;;;21.07;50.58;97529.34;5038409;28;20524;-60
2023/06/11 04:41:14;;;;;;;9.32;6.18;;;19.30;67.10;;;21.07;50.29;97527.47;5055238;28;20047;-61
2023/06/11 04:43:46;;;;;;;8.10;6.30;;;19.30;67.20;;;21.10;50.78;97529.72;5063191;28;20047;-61
2023/06/11 04:46:14;;;;;;;6.68;6.03;;;19.40;67.00;;;21.11;50.81;97528.66;5054806;28;20421;-61
2023/06/11 04:48:42;;;;;;;9.10;6.30;;;19.40;66.70;;;21.12;50.70;97543.84;5084463;28;20045;-61
2023/06/11 04:51:11;;;;;;;9.15;6.85;;;19.50;66.50;;;21.13;50.64;97542.81;5085279;28;20051;-61
2023/06/11 04:53:43;;;;;;;7.70;6.53;;;19.50;66.50;;;21.14;50.92;97536.31;5047226;28;20049;-61
2023/06/11 04:56:12;;;;;;;9.23;7.20;;;19.50;66.80;;;21.17;50.67;97535.00;5037903;28;20133;-61
2023/06/11 04:58:40;;;;;;;8.27;7.15;;;19.50;66.90;;;21.18;50.61;97540.19;5054723;28;20519;-61
2023/06/11 05:01:12;;;;;;;8.88;7.07;;;19.50;67.10;;;21.21;51.05;97542.47;5054684;28;20040;-61
2023/06/11 05:03:40;;;;;;;7.75;6.95;;;19.50;67.40;;;21.22;51.04;97538.69;5056438;28;20500;-60
2023/06/11 05:06:13;;;;;;;8.48;6.60;;;19.50;67.20;;;21.26;50.93;97538.22;5049624;28;20051;-61
2023/06/11 05:08:43;;;;;;;9.43;7.77;;;19.60;67.30;;;21.28;50.85;97544.22;5057723;28;20060;-61
2023/06/11 05:11:11;;;;;;;9.15;7.53;;;19.60;67.00;;;21.29;50.93;97541.31;5065677;28;20051;-61
2023/06/11 05:13:39;;;;;;;9.55;7.38;;;19.60;66.70;;;21.29;50.58;97533.19;5058106;28;20056;-61
2023/06/11 05:16:08;;;;;;;7.07;6.25;;;19.60;66.70;;;21.31;50.87;97541.06;5059641;28;20063;-60
2023/06/11 05:18:37;;;;;;;9.38;6.65;;;19.70;66.60;;;21.34;51.14;97546.00;5056216;28;20048;-59
2023/06/11 05:21:09;;;;;;;7.97;6.55;;;19.70;66.80;;;21.36;50.86;97541.19;5060781;28;20041;-60
2023/06/11 05:23:39;;;;;;;6.53;5.93;;;19.80;66.70;;;21.39;50.59;97536.13;5055915;28;20422;-60
2023/06/11 05:26:12;;;;;;;9.55;6.43;;;19.80;66.60;;;21.43;50.63;97544.63;5043704;28;20492;-60
2023/06/11 05:28:43;;;;;;;6.93;6.05;;;19.90;66.10;;;21.46;51.01;97543.34;5056558;28;20049;-60
2023/06/11 05:31:12;;;;;;;7.10;6.40;;;19.90;66.20;;;21.46;51.00;97551.47;5059619;28;20044;-59
2023/06/11 05:33:44;;;;;;;8.77;6.88;;;19.90;66.00;;;21.48;50.61;97557.47;5056878;28;20056;-59
2023/06/11 05:36:11;;;;;;;7.07;6.25;;;19.90;66.30;;;21.51;50.68;97560.53;5058707;28;20431;-60
2023/06/11 05:38:40;;;;;;;8.10;7.30;;;20.00;66.00;;;21.54;50.94;97561.94;5055897;28;20055;-60
2023/06/11 05:41:08;;;;;;;8.10;6.38;;;20.00;66.00;;;21.57;50.88;97558.78;5059851;28;20044;-60
2023/06/11 05:43:35;;;;;;;7.55;6.85;;;20.10;65.90;;;21.62;50.59;97556.22;5054485;28;20044;-60
2023/06/11 05:46:03;;;;;;;7.25;6.53;;;20.10;65.50;;;21.61;50.59;97555.38;5064878;28;20044;-60
2023/06/11 05:48:32;;;;;;;8.90;6.32;;;20.20;65.10;;;21.63;50.60;97549.72;5064834;28;20044;-59
2023/06/11 05:51:00;;;;;;;7.68;6.75;;;20.30;65.00;;;21.67;50.64;97561.72;5054036;28;20040;-59
2023/06/11 05:53:28;;;;;;;7.57;6.35;;;20.30;65.10;;;21.69;50.96;97556.91;5053397;28;20048;-59
2023/06/11 05:56:03;;;;;;;7.10;6.43;;;20.30;65.00;;;21.71;50.78;97560.19;5061128;28;20070;-60
2023/06/11 05:58:34;;;;;;;7.30;6.63;;;20.30;64.60;;;21.77;50.51;97563.84;5053298;28;20542;-60
2023/06/11 06:01:04;;;;;;;7.65;6.68;;;20.40;64.50;;;21.80;50.20;97566.94;5053384;28;20055;-59
2023/06/11 06:03:36;;;;;;;7.20;6.35;;;20.40;64.20;;;21.78;50.63;97566.34;5061712;28;20037;-60
2023/06/11 06:06:05;;;;;;;7.50;6.68;;;20.50;64.30;;;21.81;50.97;97568.59;5036529;28;20048;-59
2023/06/11 06:08:32;;;;;;;7.03;6.32;;;20.50;64.30;;;21.89;50.31;97569.28;5071330;28;20045;-59
2023/06/11 06:11:00;;;;;;;7.03;5.95;;;20.60;64.20;;;21.92;50.23;97572.34;5053676;28;20056;-59
2023/06/11 06:13:28;;;;;;;7.32;6.63;;;20.60;63.80;;;21.95;50.46;97577.31;5053722;28;20048;-61
2023/06/11 06:15:59;;;;;;;7.03;6.43;;;20.70;63.60;;;22.00;50.28;97577.44;5044569;28;20055;-60
2023/06/11 06:18:29;;;;;;;6.90;6.20;;;20.70;63.50;;;22.06;50.28;97577.53;5065419;28;20049;-60
2023/06/11 06:20:58;;;;;;;6.95;6.25;;;20.80;63.20;;;22.10;49.91;97579.56;5053116;28;20040;-60
2023/06/11 06:23:26;;;;;;;7.90;6.57;;;20.80;63.20;;;22.14;49.80;97585.28;5071162;28;20481;-60
2023/06/11 06:26:01;;;;;;;6.80;6.10;;;20.80;63.00;;;22.18;49.92;97590.03;5053099;28;20037;-60
2023/06/11 06:28:31;;;;;;;7.88;6.00;;;20.90;62.90;;;22.20;49.52;97590.63;5066549;28;20528;-60
2023/06/11 06:30:59;;;;;;;6.93;5.75;;;20.90;62.20;;;22.26;49.76;97597.00;5053901;28;20364;-60
2023/06/11 06:33:27;;;;;;;6.47;5.82;;;21.00;62.40;;;22.34;49.53;97593.09;5053417;28;20040;-60
2023/06/11 06:35:55;;;;;;;7.25;5.78;;;21.00;62.30;;;22.35;49.35;97594.75;5055764;28;20071;-60
2023/06/11 06:38:22;;;;;;;6.32;5.72;;;21.10;62.10;;;22.42;49.39;97601.69;5083116;28;20055;-60
2023/06/11 06:40:50;;;;;;;8.65;6.10;;;21.20;61.70;;;22.48;49.29;97602.63;5056491;28;20067;-60
2023/06/11 06:43:18;;;;;;;8.90;6.25;;;21.20;61.60;;;22.52;49.13;97597.56;5038408;28;20052;-60
2023/06/11 06:45:52;;;;;;;6.95;6.15;;;21.30;61.60;;;22.54;49.24;97600.84;5051693;28;20063;-61
2023/06/11 06:48:25;;;;;;;7.57;6.07;;;21.30;61.40;;;22.56;48.83;97596.81;5045650;28;20775;-60
2023/06/11 06:50:55;;;;;;;7.13;6.43;;;21.30;61.20;;;22.62;48.97;97600.47;5052139;28;20424;-60
2023/06/11 06:53:23;;;;;;;7.93;6.47;;;21.30;61.30;;;22.68;49.04;97593.25;5052203;28;20051;-60
2023/06/11 06:55:50;;;;;;;8.13;7.32;;;21.40;61.20;;;22.71;48.88;97582.75;5070577;28;20075;-61
2023/06/11 06:58:20;;;;;;;8.63;7.47;;;21.40;60.90;;;22.77;48.54;97589.09;5029281;28;20057;-61
2023/06/11 07:00:47;;;;;;;8.15;7.35;;;21.60;60.70;;;22.80;48.64;97594.88;5059184;28;20048;-61
2023/06/11 07:03:17;;;;;;;7.55;6.30;;;21.60;60.30;;;22.82;48.39;97594.66;5054945;28;20435;-62
2023/06/11 07:05:44;;;;;;;7.25;6.55;;;21.60;60.00;;;22.85;48.34;97588.72;5053350;28;20056;-61
2023/06/11 07:08:13;;;;;;;7.03;6.07;;;21.70;60.20;;;22.90;48.26;97594.25;5059738;28;20415;-62
2023/06/11 07:10:50;;;;;;;7.20;6.40;;;21.70;59.80;;;22.92;48.25;97591.31;5052682;28;20056;-61
2023/06/11 07:13:25;;;;;;;6.80;6.00;;;21.70;59.50;;;22.96;48.05;97590.56;5049755;28;20056;-61
2023/06/11 07:15:56;;;;;;;7.47;6.78;;;21.80;59.30;;;22.99;47.75;97590.09;5050052;28;20052;-61
2023/06/11 07:18:25;;;;;;;7.20;6.50;;;21.80;59.00;;;23.01;47.85;97589.84;5052029;28;20044;-60
2023/06/11 07:20:52;;;;;;;8.07;7.13;;;21.80;59.20;;;23.08;47.88;97593.25;5079454;28;20041;-61
2023/06/11 07:23:20;;;;;;;7.97;5.75;;;21.90;59.20;;;23.14;47.54;97591.47;5053401;28;20029;-60
2023/06/11 07:25:51;;;;;;;7.10;6.32;;;21.90;58.80;;;23.18;47.50;97590.72;5050117;28;20056;-61
2023/06/11 07:28:19;;;;;;;7.63;6.97;;;22.00;58.70;;;23.26;47.03;97591.41;5051234;28;20041;-61
2023/06/11 07:30:48;;;;;;;6.20;5.53;;;22.10;58.30;;;23.30;46.78;97589.84;5065763;28;20062;-62
2023/06/11 07:33:18;;;;;;;7.13;6.13;;;22.10;57.50;;;23.33;46.80;97590.19;5078335;28;20044;-61
2023/06/11 07:35:49;;;;;;;6.57;5.97;;;22.10;57.30;;;23.39;46.24;97588.38;5055553;28;20401;-61
2023/06/11 07:38:17;;;;;;;6.55;5.95;;;22.20;57.00;;;23.42;46.29;97590.63;5061457;28;20044;-62
2023/06/11 07:40:45;;;;;;;8.20;6.68;;;22.30;57.00;;;23.46;45.99;97597.22;5082783;28;20511;-62
2023/06/11 07:43:13;;;;;;;7.00;6.30;;;22.30;56.80;;;23.49;45.97;97602.13;5062066;28;20036;-62
2023/06/11 07:45:41;;;;;;;7.47;6.70;;;22.30;56.30;;;23.50;45.82;97594.84;5055158;28;20135;-62
2023/06/11 07:48:08;;;;;;;6.38;5.78;;;22.30;56.20;;;23.53;46.00;97592.44;5062229;28;20051;-61
2023/06/11 07:50:37;;;;;;;8.70;6.53;;;22.40;56.20;;;23.58;45.52;97597.16;5055215;28;20052;-62
2023/06/11 07:53:05;;;;;;;7.15;6.43;;;22.40;55.90;;;23.64;45.52;97596.16;5047228;28;20052;-62
2023/06/11 07:55:34;;;;;;;7.47;6.78;;;22.50;55.90;;;23.70;45.35;97603.31;5067774;28;20041;-62
2023/06/11 07:58:01;;;;;;;6.15;5.55;;;22.50;55.80;;;23.76;45.28;97612.38;5081037;28;20036;-62
2023/06/11 08:00:29;;;;;;;7.32;5.60;;;22.60;55.70;;;23.81;45.32;97612.50;5068346;28;20043;-62
2023/06/11 08:02:56;;;;;;;7.32;6.13;;;22.60;55.60;;;23.86;44.95;97607.13;5071608;28;20068;-62
2023/06/11 08:05:24;;;;;;;6.57;5.97;;;22.70;55.20;;;23.88;44.47;97598.72;5077338;28;20040;-61
2023/06/11 08:07:52;;;;;;;10.25;6.35;;;22.70;54.30;;;23.90;44.25;97604.75;5082942;28;20047;-62
2023/06/11 08:10:20;;;;;;;9.23;6.97;;;22.70;53.90;;;23.93;44.12;97604.25;5081606;28;20037;-61
2023/06/11 08:12:47;;;;;;;6.32;5.72;;;22.70;53.80;;;23.95;44.02;97594.78;5083366;28;20415;-61
2023/06/11 08:15:15;;;;;;;6.05;5.45;;;22.80;53.80;;;24.00;43.96;97602.19;5085950;28;20487;-61
2023/06/11 08:17:43;;;;;;;6.50;5.80;;;22.90;53.80;;;24.04;44.00;97600.63;5085011;28;20040;-61
2023/06/11 08:20:11;;;;;;;7.20;6.50;;;22.90;53.80;;;24.10;43.66;97596.91;5082359;28;20047;-62
2023/06/11 08:22:40;;;;;;;7.05;6.25;;;23.00;53.30;;;24.14;43.27;97589.88;5082405;28;20408;-62
2023/06/11 08:25:09;;;;;;;6.80;6.20;;;23.00;52.70;;;24.19;43.18;97589.13;5083454;28;20036;-62
2023/06/11 08:27:37;;;;;;;6.93;6.32;;;23.00;52.50;;;24.23;42.82;97590.28;5081704;28;20055;-62
2023/06/11 08:30:06;;;;;;;6.72;6.03;;;23.10;52.20;;;24.28;42.79;97590.34;5058806;28;20040;-63
2023/06/11 08:32:34;;;;;;;7.55;6.40;;;23.20;51.90;;;24.33;42.59;97590.44;5061037;28;20051;-63
2023/06/11 08:35:02;;;;;;;6.05;5.45;;;23.20;51.70;;;24.41;42.25;97599.22;5084295;28;20040;-65
2023/06/11 08:37:29;;;;;;;6.13;4.80;;;23.20;51.40;;;24.43;42.17;97594.34;5084483;28;20055;-63
2023/06/11 08:39:57;;;;;;;6.45;5.85;;;23.30;51.10;;;24.44;41.74;97593.28;5083517;28;20500;-63
2023/06/11 08:42:24;;;;;;;6.60;6.00;;;23.30;50.50;;;24.48;41.82;97595.22;5082111;28;20408;-63
2023/06/11 08:44:52;;;;;;;6.80;6.05;;;23.40;50.60;;;24.54;41.80;97580.69;5055715;28;20514;-63
2023/06/11 08:47:22;;;;;;;6.40;5.72;;;23.40;50.30;;;24.57;41.33;97579.34;5082161;28;20040;-63
2023/06/11 08:49:51;;;;;;;6.10;5.38;;;23.40;50.30;;;24.62;41.52;97579.41;5056846;28;20044;-61
2023/06/11 08:52:22;;;;;;;6.10;4.97;;;23.50;50.20;;;24.69;41.31;97585.47;5062706;28;20055;-61
2023/06/11 08:54:49;;;;;;;5.47;4.93;;;23.60;49.70;;;24.75;40.69;97584.44;5039396;28;20048;-62
2023/06/11 08:57:18;;;;;;;6.80;6.03;;;23.60;49.30;;;24.80;40.41;97578.25;5084581;28;20047;-61
2023/06/11 08:59:45;;;;;;;6.78;5.43;;;23.70;48.80;;;24.87;40.65;97581.63;5059131;28;20462;-61
2023/06/11 09:02:13;;;;;;;6.18;5.35;;;23.80;49.20;;;24.93;40.17;97579.75;5068757;28;20503;-61
2023/06/11 09:04:44;;;;;;;6.35;5.68;;;23.90;48.50;;;24.98;40.10;97587.97;5059236;28;20051;-61
2023/06/11 09:07:23;;;;;;;6.45;5.85;;;23.80;48.40;;;25.03;39.98;97581.75;5084288;28;20044;-61
2023/06/11 09:10:08;;;;;;;6.28;5.72;;;23.90;47.30;;;25.06;39.59;97584.78;5084730;28;20053;-62
2023/06/11 09:12:37;;;;;;;6.13;5.53;;;24.00;45.90;;;25.09;39.40;97578.03;5084906;28;20040;-62
2023/06/11 09:15:05;;;;;;;6.40;5.78;;;23.90;47.50;;;25.10;39.35;97583.19;5082405;28;20055;-62
2023/06/11 09:17:37;;;;;;;5.90;5.30;;;24.00;47.40;;;25.15;39.62;97579.72;5080548;28;20044;-61
2023/06/11 09:20:15;;;;;;;5.47;4.97;;;24.10;47.40;;;25.22;39.21;97574.06;5083316;28;20051;-62
2023/06/11 09:22:44;;;;;;;5.82;5.32;;;24.10;45.80;;;25.26;38.86;97576.06;5059076;28;20055;-61
2023/06/11 09:25:17;;;;;;;6.18;5.57;;;24.10;46.40;;;25.31;39.14;97573.34;5058286;28;20036;-61
2023/06/11 09:27:47;;;;;;;7.95;6.45;;;24.20;46.60;;;25.37;39.04;97578.88;5059352;28;20044;-62
2023/06/11 09:30:18;;;;;;;7.05;5.32;;;24.30;46.60;;;25.40;38.67;97581.09;5068073;28;20036;-62
2023/06/11 09:32:48;;;;;;;6.45;5.85;;;24.30;46.20;;;25.43;38.57;97573.19;5084336;28;20055;-61
2023/06/11 09:35:17;;;;;;;6.95;5.45;;;24.30;46.00;;;25.48;38.40;97569.72;5068072;28;20048;-62
2023/06/11 09:37:51;;;;;;;6.72;6.13;;;24.40;46.20;;;25.53;38.33;97567.84;5082548;28;20048;-62
2023/06/11 09:40:21;;;;;;;5.65;5.15;;;24.40;45.70;;;25.59;38.10;97570.59;5054584;28;20051;-62
2023/06/11 09:42:49;;;;;;;5.72;5.18;;;24.40;45.60;;;25.66;38.15;97561.13;5080573;28;20041;-62
2023/06/11 09:45:19;;;;;;;6.00;5.40;;;24.60;45.30;;;25.69;36.72;97562.53;5067899;28;20040;-62
2023/06/11 09:47:48;;;;;;;8.90;5.13;;;24.60;43.20;;;25.69;36.45;97566.06;5084206;28;20040;-62
2023/06/11 09:50:17;;;;;;;6.00;5.13;;;24.60;43.20;;;25.73;35.69;97564.47;5083943;28;20032;-61
2023/06/11 09:52:45;;;;;;;6.25;5.40;;;24.70;42.20;;;25.78;35.45;97566.38;5083816;28;20063;-62
2023/06/11 09:55:14;;;;;;;8.23;5.13;;;24.70;41.90;;;25.82;34.42;97569.41;5057313;28;20423;-61
2023/06/11 09:57:43;;;;;;;5.18;4.38;;;24.70;40.40;;;25.85;34.54;97569.72;5083254;28;20048;-61
2023/06/11 10:00:12;;;;;;;7.13;4.97;;;24.80;38.70;;;25.89;33.61;97562.66;5081178;28;20048;-61
2023/06/11 10:02:44;;;;;;;6.47;5.97;;;24.80;39.10;;;25.96;34.05;97564.38;5080234;28;20115;-61
2023/06/11 10:05:13;;;;;;;7.20;5.40;;;24.90;39.10;;;26.05;33.56;97558.16;5054943;28;20052;-61
2023/06/11 10:08:12;;;;;;;7.55;5.13;;;25.00;38.60;;;26.12;33.87;97564.19;5065691;28;20044;-61
2023/06/11 10:10:43;;;;;;;6.82;4.90;;;25.10;37.80;;;26.22;33.18;97565.34;5066553;28;20051;-61
2023/06/11 10:13:11;;;;;;;5.82;4.82;;;25.20;38.50;;;26.24;32.73;97558.53;5071741;28;20530;-60
2023/06/11 10:15:39;;;;;;;6.70;5.07;;;25.20;37.60;;;26.26;32.16;97556.38;5079795;28;20044;-62
2023/06/11 10:18:14;;;;;;;6.32;4.90;;;25.20;37.00;;;26.33;31.94;97564.34;5080992;28;20060;-61
2023/06/11 10:20:59;;;;;;;5.80;5.18;;;25.20;34.60;;;26.36;31.74;97555.59;5039275;28;20528;-61
2023/06/11 10:23:41;;;;;;;5.93;5.18;;;25.30;33.80;;;26.41;30.91;97560.28;5068037;28;20051;-62
2023/06/11 10:26:10;;;;;;;5.47;4.53;;;25.40;32.90;;;26.50;30.73;97558.66;5056438;28;20045;-62
2023/06/11 10:28:48;;;;;;;6.60;4.40;;;25.50;34.90;;;26.61;30.17;97560.38;5083480;28;20028;-63
2023/06/11 10:31:30;;;;;;;6.38;4.75;;;25.60;33.50;;;26.71;29.95;97568.63;5080423;28;20055;-62